sensor_id;sensor_type;location;lat;lon;timestamp;pressure;altitude;pressure_sealevel;temperature;humidity
73341;BME280;61578;52.002;5.468;2024-01-06T00:00:27;100313.56;;;8.33;83.83
73341;BME280;61578;52.002;5.468;2024-01-06T00:00:58;100315.28;;;8.34;83.97
73341;BME280;61578;52.002;5.468;2024-01-06T00:01:28;100313.47;;;8.34;83.66
73341;BME280;61578;52.002;5.468;2024-01-06T00:01:59;100313.56;;;8.33;83.55
73341;BME280;61578;52.002;5.468;2024-01-06T00:02:30;100315.28;;;8.34;83.70
73341;BME280;61578;52.002;5.468;2024-01-06T00:03:01;100307.50;;;8.31;83.69
73341;BME280;61578;52.002;5.468;2024-01-06T00:03:32;100282.31;;;8.11;83.76
73341;BME280;61578;52.002;5.468;2024-01-06T00:04:02;100318.94;;;8.31;83.44
73341;BME280;61578;52.002;5.468;2024-01-06T00:04:34;100319.72;;;8.33;83.17
73341;BME280;61578;52.002;5.468;2024-01-06T00:05:05;100323.22;;;8.34;82.67
73341;BME280;61578;52.002;5.468;2024-01-06T00:05:36;100313.56;;;8.33;83.01
73341;BME280;61578;52.002;5.468;2024-01-06T00:06:07;100311.06;;;8.30;82.84
73341;BME280;61578;52.002;5.468;2024-01-06T00:06:38;100313.72;;;8.30;82.39
73341;BME280;61578;52.002;5.468;2024-01-06T00:07:08;100316.31;;;8.31;81.80
73341;BME280;61578;52.002;5.468;2024-01-06T00:07:39;100307.41;;;8.18;82.20
73341;BME280;61578;52.002;5.468;2024-01-06T00:08:10;100322.31;;;8.19;81.82
73341;BME280;61578;52.002;5.468;2024-01-06T00:08:41;100321.28;;;8.22;81.97
73341;BME280;61578;52.002;5.468;2024-01-06T00:09:12;100275.31;;;7.96;82.30
73341;BME280;61578;52.002;5.468;2024-01-06T00:09:43;100319.69;;;8.19;82.99
73341;BME280;61578;52.002;5.468;2024-01-06T00:10:14;100289.09;;;8.01;83.53
73341;BME280;61578;52.002;5.468;2024-01-06T00:10:45;100321.47;;;8.19;82.84
73341;BME280;61578;52.002;5.468;2024-01-06T00:11:18;100314.78;;;8.13;83.02
73341;BME280;61578;52.002;5.468;2024-01-06T00:11:49;100315.50;;;8.15;82.43
73341;BME280;61578;52.002;5.468;2024-01-06T00:12:20;100342.63;;;8.19;82.06
73341;BME280;61578;52.002;5.468;2024-01-06T00:12:51;100333.84;;;8.18;81.83
73341;BME280;61578;52.002;5.468;2024-01-06T00:13:22;100331.09;;;8.20;81.62
73341;BME280;61578;52.002;5.468;2024-01-06T00:13:53;100314.13;;;8.09;82.05
73341;BME280;61578;52.002;5.468;2024-01-06T00:14:23;100334.03;;;8.15;82.40
73341;BME280;61578;52.002;5.468;2024-01-06T00:14:54;100339.31;;;8.15;82.76
73341;BME280;61578;52.002;5.468;2024-01-06T00:15:25;100336.03;;;8.11;82.17
73341;BME280;61578;52.002;5.468;2024-01-06T00:15:56;100337.72;;;8.12;82.33
73341;BME280;61578;52.002;5.468;2024-01-06T00:16:27;100330.84;;;8.10;81.68
73341;BME280;61578;52.002;5.468;2024-01-06T00:16:58;100338.69;;;8.11;81.43
73341;BME280;61578;52.002;5.468;2024-01-06T00:17:28;100315.06;;;7.94;82.18
73341;BME280;61578;52.002;5.468;2024-01-06T00:17:59;100351.22;;;8.08;82.16
73341;BME280;61578;52.002;5.468;2024-01-06T00:18:30;100339.72;;;8.09;82.25
73341;BME280;61578;52.002;5.468;2024-01-06T00:19:01;100339.03;;;8.05;82.02
73341;BME280;61578;52.002;5.468;2024-01-06T00:19:32;100342.44;;;8.07;81.66
73341;BME280;61578;52.002;5.468;2024-01-06T00:20:03;100303.56;;;7.81;82.81
73341;BME280;61578;52.002;5.468;2024-01-06T00:20:35;100338.41;;;8.02;82.75
73341;BME280;61578;52.002;5.468;2024-01-06T00:21:05;100345.25;;;8.04;82.59
73341;BME280;61578;52.002;5.468;2024-01-06T00:21:36;100346.97;;;8.05;82.90
73341;BME280;61578;52.002;5.468;2024-01-06T00:22:07;100347.91;;;8.04;82.82
73341;BME280;61578;52.002;5.468;2024-01-06T00:22:38;100304.41;;;7.82;82.48
73341;BME280;61578;52.002;5.468;2024-01-06T00:23:09;100358.47;;;8.04;82.19
73341;BME280;61578;52.002;5.468;2024-01-06T00:23:40;100353.19;;;8.04;82.55
73341;BME280;61578;52.002;5.468;2024-01-06T00:24:11;100341.22;;;7.99;82.89
73341;BME280;61578;52.002;5.468;2024-01-06T00:24:42;100348.03;;;8.03;82.16
73341;BME280;61578;52.002;5.468;2024-01-06T00:25:13;100351.63;;;8.02;82.38
73341;BME280;61578;52.002;5.468;2024-01-06T00:25:43;100354.53;;;7.97;82.08
73341;BME280;61578;52.002;5.468;2024-01-06T00:26:14;100357.84;;;8.01;82.69
73341;BME280;61578;52.002;5.468;2024-01-06T00:26:45;100354.03;;;8.05;82.03
73341;BME280;61578;52.002;5.468;2024-01-06T00:27:16;100354.25;;;8.02;82.32
73341;BME280;61578;52.002;5.468;2024-01-06T00:27:46;100355.03;;;8.04;82.31
73341;BME280;61578;52.002;5.468;2024-01-06T00:28:17;100351.63;;;8.02;82.34
73341;BME280;61578;52.002;5.468;2024-01-06T00:28:50;100354.63;;;7.96;82.36
73341;BME280;61578;52.002;5.468;2024-01-06T00:29:21;100351.63;;;8.02;82.25
73341;BME280;61578;52.002;5.468;2024-01-06T00:29:52;100352.38;;;8.04;81.99
73341;BME280;61578;52.002;5.468;2024-01-06T00:30:23;100316.09;;;7.78;81.30
73341;BME280;61578;52.002;5.468;2024-01-06T00:30:54;100363.91;;;8.03;81.95
73341;BME280;61578;52.002;5.468;2024-01-06T00:31:25;100355.28;;;7.99;81.77
73341;BME280;61578;52.002;5.468;2024-01-06T00:31:55;100353.69;;;7.97;81.61
73341;BME280;61578;52.002;5.468;2024-01-06T00:32:30;100356.41;;;7.95;81.56
73341;BME280;61578;52.002;5.468;2024-01-06T00:33:01;100368.59;;;7.98;81.35
73341;BME280;61578;52.002;5.468;2024-01-06T00:33:32;100361.59;;;7.97;81.12
73341;BME280;61578;52.002;5.468;2024-01-06T00:34:03;100354.69;;;7.94;80.75
73341;BME280;61578;52.002;5.468;2024-01-06T00:34:36;100358.31;;;7.93;81.30
73341;BME280;61578;52.002;5.468;2024-01-06T00:35:07;100359.34;;;7.91;81.22
73341;BME280;61578;52.002;5.468;2024-01-06T00:35:38;100358.31;;;7.93;81.54
73341;BME280;61578;52.002;5.468;2024-01-06T00:36:09;100341.88;;;7.88;81.39
73341;BME280;61578;52.002;5.468;2024-01-06T00:36:40;100345.63;;;7.84;81.61
73341;BME280;61578;52.002;5.468;2024-01-06T00:37:10;100348.78;;;7.91;80.73
73341;BME280;61578;52.002;5.468;2024-01-06T00:37:41;100357.56;;;7.91;80.59
73341;BME280;61578;52.002;5.468;2024-01-06T00:38:12;100353.22;;;7.90;80.43
73341;BME280;61578;52.002;5.468;2024-01-06T00:38:43;100356.97;;;7.86;80.54
73341;BME280;61578;52.002;5.468;2024-01-06T00:39:14;100371.97;;;7.86;80.82
73341;BME280;61578;52.002;5.468;2024-01-06T00:39:45;100346.88;;;7.79;80.94
73341;BME280;61578;52.002;5.468;2024-01-06T00:40:15;100352.75;;;7.84;81.50
73341;BME280;61578;52.002;5.468;2024-01-06T00:40:46;100312.88;;;7.58;81.13
73341;BME280;61578;52.002;5.468;2024-01-06T00:41:17;100357.25;;;7.82;81.12
73341;BME280;61578;52.002;5.468;2024-01-06T00:41:48;100353.47;;;7.86;81.35
73341;BME280;61578;52.002;5.468;2024-01-06T00:42:18;100358.19;;;7.81;81.74
73341;BME280;61578;52.002;5.468;2024-01-06T00:42:49;100358.03;;;7.84;81.66
73341;BME280;61578;52.002;5.468;2024-01-06T00:43:20;100367.38;;;7.89;81.68
73341;BME280;61578;52.002;5.468;2024-01-06T00:43:50;100363.19;;;7.85;81.49
73341;BME280;61578;52.002;5.468;2024-01-06T00:44:21;100363.00;;;7.88;80.80
73341;BME280;61578;52.002;5.468;2024-01-06T00:44:52;100362.94;;;7.90;81.39
73341;BME280;61578;52.002;5.468;2024-01-06T00:45:23;100373.75;;;7.85;81.02
73341;BME280;61578;52.002;5.468;2024-01-06T00:45:54;100359.69;;;7.85;81.58
73341;BME280;61578;52.002;5.468;2024-01-06T00:46:24;100365.75;;;7.87;81.89
73341;BME280;61578;52.002;5.468;2024-01-06T00:46:55;100325.44;;;7.69;81.38
73341;BME280;61578;52.002;5.468;2024-01-06T00:47:26;100351.13;;;7.81;81.26
73341;BME280;61578;52.002;5.468;2024-01-06T00:47:57;100360.84;;;7.81;80.78
73341;BME280;61578;52.002;5.468;2024-01-06T00:48:28;100358.47;;;7.76;81.48
73341;BME280;61578;52.002;5.468;2024-01-06T00:48:58;100353.19;;;7.76;80.49
73341;BME280;61578;52.002;5.468;2024-01-06T00:49:29;100360.84;;;7.81;80.90
73341;BME280;61578;52.002;5.468;2024-01-06T00:50:00;100353.28;;;7.74;81.23
73341;BME280;61578;52.002;5.468;2024-01-06T00:50:31;100281.91;;;7.32;81.38
73341;BME280;61578;52.002;5.468;2024-01-06T00:51:02;100365.97;;;7.84;81.72
73341;BME280;61578;52.002;5.468;2024-01-06T00:51:33;100364.03;;;7.86;81.72
73341;BME280;61578;52.002;5.468;2024-01-06T00:52:04;100314.53;;;7.45;81.25
73341;BME280;61578;52.002;5.468;2024-01-06T00:52:35;100336.38;;;7.63;81.44
73341;BME280;61578;52.002;5.468;2024-01-06T00:53:05;100362.47;;;7.83;81.44
73341;BME280;61578;52.002;5.468;2024-01-06T00:53:36;100366.78;;;7.84;81.54
73341;BME280;61578;52.002;5.468;2024-01-06T00:54:07;100365.09;;;7.83;81.46
73341;BME280;61578;52.002;5.468;2024-01-06T00:54:38;100332.03;;;7.62;81.37
73341;BME280;61578;52.002;5.468;2024-01-06T00:55:08;100367.63;;;7.85;81.53
73341;BME280;61578;52.002;5.468;2024-01-06T00:55:39;100382.53;;;7.86;81.75
73341;BME280;61578;52.002;5.468;2024-01-06T00:56:10;100361.59;;;7.83;81.73
73341;BME280;61578;52.002;5.468;2024-01-06T00:56:40;100382.53;;;7.86;81.57
73341;BME280;61578;52.002;5.468;2024-01-06T00:57:13;100377.25;;;7.86;81.44
73341;BME280;61578;52.002;5.468;2024-01-06T00:57:44;100375.47;;;7.86;81.19
73341;BME280;61578;52.002;5.468;2024-01-06T00:58:14;100376.53;;;7.84;81.56
73341;BME280;61578;52.002;5.468;2024-01-06T00:58:45;100373.13;;;7.82;81.30
73341;BME280;61578;52.002;5.468;2024-01-06T00:59:16;100373.13;;;7.82;81.60
73341;BME280;61578;52.002;5.468;2024-01-06T00:59:46;100375.69;;;7.83;81.43
73341;BME280;61578;52.002;5.468;2024-01-06T01:00:17;100378.19;;;7.85;81.60
73341;BME280;61578;52.002;5.468;2024-01-06T01:00:48;100380.97;;;7.83;81.25
73341;BME280;61578;52.002;5.468;2024-01-06T01:01:19;100381.81;;;7.84;81.98
73341;BME280;61578;52.002;5.468;2024-01-06T01:01:49;100301.63;;;7.41;81.20
73341;BME280;61578;52.002;5.468;2024-01-06T01:02:21;100397.66;;;7.84;80.32
73341;BME280;61578;52.002;5.468;2024-01-06T01:02:53;100377.56;;;7.81;79.99
73341;BME280;61578;52.002;5.468;2024-01-06T01:03:30;100381.41;;;7.75;80.52
73341;BME280;61578;52.002;5.468;2024-01-06T01:04:00;100377.16;;;7.73;80.12
73341;BME280;61578;52.002;5.468;2024-01-06T01:04:32;100386.88;;;7.72;80.02
73341;BME280;61578;52.002;5.468;2024-01-06T01:05:02;100383.56;;;7.69;80.31
73341;BME280;61578;52.002;5.468;2024-01-06T01:05:33;100386.13;;;7.70;80.29
73341;BME280;61578;52.002;5.468;2024-01-06T01:06:04;100376.56;;;7.68;80.66
73341;BME280;61578;52.002;5.468;2024-01-06T01:06:37;100383.47;;;7.70;80.03
73341;BME280;61578;52.002;5.468;2024-01-06T01:07:08;100383.56;;;7.69;79.77
73341;BME280;61578;52.002;5.468;2024-01-06T01:07:38;100361.72;;;7.51;80.04
73341;BME280;61578;52.002;5.468;2024-01-06T01:08:09;100368.72;;;7.52;79.85
73341;BME280;61578;52.002;5.468;2024-01-06T01:08:40;100388.16;;;7.65;80.30
73341;BME280;61578;52.002;5.468;2024-01-06T01:09:11;100389.97;;;7.65;80.27
73341;BME280;61578;52.002;5.468;2024-01-06T01:09:44;100333.00;;;7.31;80.68
73341;BME280;61578;52.002;5.468;2024-01-06T01:10:14;100391.88;;;7.63;80.43
73341;BME280;61578;52.002;5.468;2024-01-06T01:10:45;100385.63;;;7.64;80.66
73341;BME280;61578;52.002;5.468;2024-01-06T01:11:16;100389.97;;;7.65;80.76
73341;BME280;61578;52.002;5.468;2024-01-06T01:11:46;100404.03;;;7.65;80.98
73341;BME280;61578;52.002;5.468;2024-01-06T01:12:17;100392.69;;;7.63;80.80
73341;BME280;61578;52.002;5.468;2024-01-06T01:12:48;100390.16;;;7.62;80.90
73341;BME280;61578;52.002;5.468;2024-01-06T01:13:19;100398.09;;;7.62;81.05
73341;BME280;61578;52.002;5.468;2024-01-06T01:13:49;100388.63;;;7.58;80.94
73341;BME280;61578;52.002;5.468;2024-01-06T01:14:20;100388.53;;;7.59;80.56
73341;BME280;61578;52.002;5.468;2024-01-06T01:14:52;100397.03;;;7.64;81.05
73341;BME280;61578;52.002;5.468;2024-01-06T01:15:23;100393.66;;;7.62;80.33
73341;BME280;61578;52.002;5.468;2024-01-06T01:15:54;100394.69;;;7.60;80.58
73341;BME280;61578;52.002;5.468;2024-01-06T01:16:25;100399.19;;;7.58;80.87
73341;BME280;61578;52.002;5.468;2024-01-06T01:16:55;100387.09;;;7.54;80.92
73341;BME280;61578;52.002;5.468;2024-01-06T01:17:26;100395.69;;;7.57;80.72
73341;BME280;61578;52.002;5.468;2024-01-06T01:17:57;100352.13;;;7.34;80.95
73341;BME280;61578;52.002;5.468;2024-01-06T01:18:28;100393.81;;;7.59;80.91
73341;BME280;61578;52.002;5.468;2024-01-06T01:18:58;100393.75;;;7.61;81.14
73341;BME280;61578;52.002;5.468;2024-01-06T01:19:29;100379.28;;;7.52;80.50
73341;BME280;61578;52.002;5.468;2024-01-06T01:20:00;100386.06;;;7.56;80.71
73341;BME280;61578;52.002;5.468;2024-01-06T01:20:34;100396.56;;;7.58;80.54
73341;BME280;61578;52.002;5.468;2024-01-06T01:21:05;100400.22;;;7.55;80.62
73341;BME280;61578;52.002;5.468;2024-01-06T01:21:35;100397.66;;;7.54;80.33
73341;BME280;61578;52.002;5.468;2024-01-06T01:22:06;100401.06;;;7.56;79.93
73341;BME280;61578;52.002;5.468;2024-01-06T01:22:37;100405.69;;;7.52;80.48
73341;BME280;61578;52.002;5.468;2024-01-06T01:23:08;100406.44;;;7.54;80.64
73341;BME280;61578;52.002;5.468;2024-01-06T01:23:38;100403.78;;;7.54;80.73
73341;BME280;61578;52.002;5.468;2024-01-06T01:24:09;100404.72;;;7.53;81.04
73341;BME280;61578;52.002;5.468;2024-01-06T01:24:41;100412.66;;;7.53;80.98
73341;BME280;61578;52.002;5.468;2024-01-06T01:25:13;100398.81;;;7.50;80.83
73341;BME280;61578;52.002;5.468;2024-01-06T01:25:44;100405.69;;;7.52;81.08
73341;BME280;61578;52.002;5.468;2024-01-06T01:26:14;100410.13;;;7.52;80.37
73341;BME280;61578;52.002;5.468;2024-01-06T01:26:45;100400.69;;;7.48;80.78
73341;BME280;61578;52.002;5.468;2024-01-06T01:27:16;100406.97;;;7.45;81.07
73341;BME280;61578;52.002;5.468;2024-01-06T01:27:47;100408.50;;;7.49;81.28
73341;BME280;61578;52.002;5.468;2024-01-06T01:28:17;100409.53;;;7.47;81.44
73341;BME280;61578;52.002;5.468;2024-01-06T01:28:51;100406.81;;;7.48;81.81
73341;BME280;61578;52.002;5.468;2024-01-06T01:29:25;100408.34;;;7.52;81.48
73341;BME280;61578;52.002;5.468;2024-01-06T01:29:55;100416.44;;;7.49;81.08
73341;BME280;61578;52.002;5.468;2024-01-06T01:30:27;100415.50;;;7.50;81.27
73341;BME280;61578;52.002;5.468;2024-01-06T01:30:58;100409.53;;;7.47;80.97
73341;BME280;61578;52.002;5.468;2024-01-06T01:31:28;100410.22;;;7.50;80.91
73341;BME280;61578;52.002;5.468;2024-01-06T01:31:59;100425.97;;;7.52;81.01
73341;BME280;61578;52.002;5.468;2024-01-06T01:32:30;100416.16;;;7.54;81.43
73341;BME280;61578;52.002;5.468;2024-01-06T01:33:03;100421.44;;;7.54;81.38
73341;BME280;61578;52.002;5.468;2024-01-06T01:33:34;100423.34;;;7.52;81.25
73341;BME280;61578;52.002;5.468;2024-01-06T01:34:05;100416.16;;;7.54;81.15
73341;BME280;61578;52.002;5.468;2024-01-06T01:34:36;100417.13;;;7.53;81.56
73341;BME280;61578;52.002;5.468;2024-01-06T01:35:07;100412.88;;;7.50;81.61
73341;BME280;61578;52.002;5.468;2024-01-06T01:35:38;100422.28;;;7.54;81.52
73341;BME280;61578;52.002;5.468;2024-01-06T01:36:09;100426.56;;;7.57;81.30
73341;BME280;61578;52.002;5.468;2024-01-06T01:36:40;100425.69;;;7.56;81.46
73341;BME280;61578;52.002;5.468;2024-01-06T01:37:11;100412.56;;;7.55;81.12
73341;BME280;61578;52.002;5.468;2024-01-06T01:37:42;100419.66;;;7.54;81.23
73341;BME280;61578;52.002;5.468;2024-01-06T01:38:12;100421.56;;;7.52;81.25
73341;BME280;61578;52.002;5.468;2024-01-06T01:38:43;100430.22;;;7.54;81.38
73341;BME280;61578;52.002;5.468;2024-01-06T01:39:14;100433.78;;;7.53;80.85
73341;BME280;61578;52.002;5.468;2024-01-06T01:39:46;100426.84;;;7.52;81.19
73341;BME280;61578;52.002;5.468;2024-01-06T01:40:17;100421.63;;;7.51;81.16
73341;BME280;61578;52.002;5.468;2024-01-06T01:40:48;100393.53;;;7.34;80.91
73341;BME280;61578;52.002;5.468;2024-01-06T01:41:19;100432.78;;;7.56;81.05
73341;BME280;61578;52.002;5.468;2024-01-06T01:41:50;100430.13;;;7.56;80.80
73341;BME280;61578;52.002;5.468;2024-01-06T01:42:20;100428.50;;;7.53;81.15
73341;BME280;61578;52.002;5.468;2024-01-06T01:42:51;100431.16;;;7.53;81.34
73341;BME280;61578;52.002;5.468;2024-01-06T01:43:22;100414.03;;;7.45;80.80
73341;BME280;61578;52.002;5.468;2024-01-06T01:43:53;100423.50;;;7.49;81.34
73341;BME280;61578;52.002;5.468;2024-01-06T01:44:28;100431.53;;;7.47;81.44
73341;BME280;61578;52.002;5.468;2024-01-06T01:44:59;100427.00;;;7.49;81.39
73341;BME280;61578;52.002;5.468;2024-01-06T01:45:30;100434.84;;;7.51;81.62
73341;BME280;61578;52.002;5.468;2024-01-06T01:46:01;100436.63;;;7.50;81.17
73341;BME280;61578;52.002;5.468;2024-01-06T01:46:32;100438.25;;;7.53;80.93
73341;BME280;61578;52.002;5.468;2024-01-06T01:47:04;100451.53;;;7.51;81.33
73341;BME280;61578;52.002;5.468;2024-01-06T01:47:36;100438.34;;;7.51;81.45
73341;BME280;61578;52.002;5.468;2024-01-06T01:48:08;100437.41;;;7.52;81.39
73341;BME280;61578;52.002;5.468;2024-01-06T01:48:39;100443.53;;;7.53;81.86
73341;BME280;61578;52.002;5.468;2024-01-06T01:49:10;100442.41;;;7.57;81.38
73341;BME280;61578;52.002;5.468;2024-01-06T01:49:41;100444.47;;;7.52;81.25
73341;BME280;61578;52.002;5.468;2024-01-06T01:50:12;100409.38;;;7.34;81.19
73341;BME280;61578;52.002;5.468;2024-01-06T01:50:45;100442.56;;;7.54;81.33
73341;BME280;61578;52.002;5.468;2024-01-06T01:51:18;100412.03;;;7.34;81.47
73341;BME280;61578;52.002;5.468;2024-01-06T01:51:50;100443.41;;;7.54;81.32
73341;BME280;61578;52.002;5.468;2024-01-06T01:52:21;100407.03;;;7.29;80.86
73341;BME280;61578;52.002;5.468;2024-01-06T01:52:52;100448.72;;;7.54;81.58
73341;BME280;61578;52.002;5.468;2024-01-06T01:53:24;100446.91;;;7.55;81.63
73341;BME280;61578;52.002;5.468;2024-01-06T01:53:58;100447.84;;;7.54;81.48
73341;BME280;61578;52.002;5.468;2024-01-06T01:54:34;100410.59;;;7.28;81.80
73341;BME280;61578;52.002;5.468;2024-01-06T01:55:05;100445.41;;;7.51;81.76
73341;BME280;61578;52.002;5.468;2024-01-06T01:55:37;100460.97;;;7.55;81.96
73341;BME280;61578;52.002;5.468;2024-01-06T01:56:10;100450.50;;;7.54;81.67
73341;BME280;61578;52.002;5.468;2024-01-06T01:56:42;100452.47;;;7.50;81.61
73341;BME280;61578;52.002;5.468;2024-01-06T01:57:15;100436.22;;;7.42;81.44
73341;BME280;61578;52.002;5.468;2024-01-06T01:57:47;100385.75;;;7.17;81.06
73341;BME280;61578;52.002;5.468;2024-01-06T01:58:18;100456.63;;;7.54;80.67
73341;BME280;61578;52.002;5.468;2024-01-06T01:58:53;100456.81;;;7.51;80.43
73341;BME280;61578;52.002;5.468;2024-01-06T01:59:24;100458.69;;;7.49;80.82
73341;BME280;61578;52.002;5.468;2024-01-06T01:59:56;100451.72;;;7.48;80.71
73341;BME280;61578;52.002;5.468;2024-01-06T02:00:27;100458.78;;;7.48;81.48
73341;BME280;61578;52.002;5.468;2024-01-06T02:00:59;100451.09;;;7.43;81.21
73341;BME280;61578;52.002;5.468;2024-01-06T02:01:30;100462.44;;;7.45;81.48
73341;BME280;61578;52.002;5.468;2024-01-06T02:02:02;100446.97;;;7.39;81.13
73341;BME280;61578;52.002;5.468;2024-01-06T02:02:34;100458.88;;;7.46;81.09
73341;BME280;61578;52.002;5.468;2024-01-06T02:03:05;100458.00;;;7.46;81.72
73341;BME280;61578;52.002;5.468;2024-01-06T02:03:40;100456.22;;;7.46;81.64
73341;BME280;61578;52.002;5.468;2024-01-06T02:04:13;100453.59;;;7.46;80.92
73341;BME280;61578;52.002;5.468;2024-01-06T02:04:47;100461.44;;;7.48;81.08
73341;BME280;61578;52.002;5.468;2024-01-06T02:05:18;100456.06;;;7.49;81.24
73341;BME280;61578;52.002;5.468;2024-01-06T02:05:49;100459.63;;;7.48;81.13
73341;BME280;61578;52.002;5.468;2024-01-06T02:06:20;100446.97;;;7.39;81.12
73341;BME280;61578;52.002;5.468;2024-01-06T02:06:50;100459.72;;;7.47;80.86
73341;BME280;61578;52.002;5.468;2024-01-06T02:07:21;100459.88;;;7.44;80.90
73341;BME280;61578;52.002;5.468;2024-01-06T02:07:52;100461.50;;;7.46;80.53
73341;BME280;61578;52.002;5.468;2024-01-06T02:08:23;100460.09;;;7.41;80.42
73341;BME280;61578;52.002;5.468;2024-01-06T02:08:54;100464.31;;;7.43;81.07
73341;BME280;61578;52.002;5.468;2024-01-06T02:09:26;100473.09;;;7.44;80.91
73341;BME280;61578;52.002;5.468;2024-01-06T02:09:59;100463.38;;;7.44;80.97
73341;BME280;61578;52.002;5.468;2024-01-06T02:10:31;100459.03;;;7.43;81.25
73341;BME280;61578;52.002;5.468;2024-01-06T02:11:03;100464.16;;;7.46;81.44
73341;BME280;61578;52.002;5.468;2024-01-06T02:11:34;100466.03;;;7.44;81.18
73341;BME280;61578;52.002;5.468;2024-01-06T02:12:05;100461.69;;;7.43;81.20
73341;BME280;61578;52.002;5.468;2024-01-06T02:12:36;100463.50;;;7.43;81.55
73341;BME280;61578;52.002;5.468;2024-01-06T02:13:11;100472.16;;;7.45;81.60
73341;BME280;61578;52.002;5.468;2024-01-06T02:13:42;100471.22;;;7.46;81.17
73341;BME280;61578;52.002;5.468;2024-01-06T02:14:13;100467.66;;;7.47;80.88
73341;BME280;61578;52.002;5.468;2024-01-06T02:14:44;100479.22;;;7.44;81.41
73341;BME280;61578;52.002;5.468;2024-01-06T02:15:15;100469.03;;;7.38;81.12
73341;BME280;61578;52.002;5.468;2024-01-06T02:15:46;100480.16;;;7.43;80.31
73341;BME280;61578;52.002;5.468;2024-01-06T02:16:20;100466.53;;;7.35;80.44
73341;BME280;61578;52.002;5.468;2024-01-06T02:16:51;100461.47;;;7.32;79.98
73341;BME280;61578;52.002;5.468;2024-01-06T02:17:22;100472.59;;;7.37;80.65
73341;BME280;61578;52.002;5.468;2024-01-06T02:17:53;100443.06;;;7.15;80.80
73341;BME280;61578;52.002;5.468;2024-01-06T02:18:23;100480.59;;;7.35;80.84
73341;BME280;61578;52.002;5.468;2024-01-06T02:18:54;100471.06;;;7.33;80.50
73341;BME280;61578;52.002;5.468;2024-01-06T02:19:26;100479.94;;;7.32;80.27
73341;BME280;61578;52.002;5.468;2024-01-06T02:19:56;100483.53;;;7.31;80.72
73341;BME280;61578;52.002;5.468;2024-01-06T02:20:30;100480.03;;;7.30;80.47
73341;BME280;61578;52.002;5.468;2024-01-06T02:21:02;100475.75;;;7.28;80.54
73341;BME280;61578;52.002;5.468;2024-01-06T02:21:40;100476.78;;;7.25;81.25
73341;BME280;61578;52.002;5.468;2024-01-06T02:22:12;100484.53;;;7.28;80.79
73341;BME280;61578;52.002;5.468;2024-01-06T02:22:43;100405.53;;;6.78;80.73
73341;BME280;61578;52.002;5.468;2024-01-06T02:23:14;100484.69;;;7.25;80.59
73341;BME280;61578;52.002;5.468;2024-01-06T02:23:45;100483.84;;;7.25;80.78
73341;BME280;61578;52.002;5.468;2024-01-06T02:24:17;100478.06;;;7.18;80.34
73341;BME280;61578;52.002;5.468;2024-01-06T02:24:48;100472.88;;;7.17;80.47
73341;BME280;61578;52.002;5.468;2024-01-06T02:25:19;100444.00;;;6.98;80.51
73341;BME280;61578;52.002;5.468;2024-01-06T02:25:49;100485.06;;;7.19;80.49
73341;BME280;61578;52.002;5.468;2024-01-06T02:26:20;100449.28;;;6.98;80.17
73341;BME280;61578;52.002;5.468;2024-01-06T02:26:51;100489.97;;;7.25;80.29
73341;BME280;61578;52.002;5.468;2024-01-06T02:27:22;100492.91;;;7.21;80.79
73341;BME280;61578;52.002;5.468;2024-01-06T02:27:53;100492.69;;;7.24;79.94
73341;BME280;61578;52.002;5.468;2024-01-06T02:28:24;100491.84;;;7.23;80.47
73341;BME280;61578;52.002;5.468;2024-01-06T02:28:55;100497.13;;;7.23;80.57
73341;BME280;61578;52.002;5.468;2024-01-06T02:29:25;100492.81;;;7.22;80.79
73341;BME280;61578;52.002;5.468;2024-01-06T02:29:56;100506.84;;;7.23;80.77
73341;BME280;61578;52.002;5.468;2024-01-06T02:30:27;100494.59;;;7.22;80.68
73341;BME280;61578;52.002;5.468;2024-01-06T02:30:58;100500.03;;;7.19;80.55
73341;BME280;61578;52.002;5.468;2024-01-06T02:31:29;100499.13;;;7.20;80.23
73341;BME280;61578;52.002;5.468;2024-01-06T02:31:59;100502.69;;;7.19;80.72
73341;BME280;61578;52.002;5.468;2024-01-06T02:32:30;100495.63;;;7.19;80.60
73341;BME280;61578;52.002;5.468;2024-01-06T02:33:01;100499.13;;;7.20;80.93
73341;BME280;61578;52.002;5.468;2024-01-06T02:33:32;100481.81;;;7.14;80.25
73341;BME280;61578;52.002;5.468;2024-01-06T02:34:02;100495.69;;;7.18;79.90
73341;BME280;61578;52.002;5.468;2024-01-06T02:34:33;100494.94;;;7.16;80.31
73341;BME280;61578;52.002;5.468;2024-01-06T02:35:06;100500.38;;;7.13;80.24
73341;BME280;61578;52.002;5.468;2024-01-06T02:35:37;100492.19;;;7.17;80.74
73341;BME280;61578;52.002;5.468;2024-01-06T02:36:10;100486.22;;;7.14;81.64
73341;BME280;61578;52.002;5.468;2024-01-06T02:36:41;100488.56;;;7.20;81.41
73341;BME280;61578;52.002;5.468;2024-01-06T02:37:11;100493.22;;;7.15;81.11
73341;BME280;61578;52.002;5.468;2024-01-06T02:37:42;100493.91;;;7.18;81.10
73341;BME280;61578;52.002;5.468;2024-01-06T02:38:13;100479.53;;;7.08;81.24
73341;BME280;61578;52.002;5.468;2024-01-06T02:38:44;100487.28;;;7.11;81.39
73341;BME280;61578;52.002;5.468;2024-01-06T02:39:15;100500.81;;;7.21;81.00
73341;BME280;61578;52.002;5.468;2024-01-06T02:39:49;100495.78;;;7.16;81.13
73341;BME280;61578;52.002;5.468;2024-01-06T02:40:19;100500.81;;;7.21;81.22
73341;BME280;61578;52.002;5.468;2024-01-06T02:40:50;100490.41;;;7.18;81.08
73341;BME280;61578;52.002;5.468;2024-01-06T02:41:21;100500.97;;;7.18;80.95
73341;BME280;61578;52.002;5.468;2024-01-06T02:41:51;100494.06;;;7.15;81.22
73341;BME280;61578;52.002;5.468;2024-01-06T02:42:22;100508.03;;;7.17;81.07
73341;BME280;61578;52.002;5.468;2024-01-06T02:42:54;100509.13;;;7.13;80.94
73341;BME280;61578;52.002;5.468;2024-01-06T02:43:25;100502.75;;;7.17;80.57
73341;BME280;61578;52.002;5.468;2024-01-06T02:43:56;100500.97;;;7.18;80.36
73341;BME280;61578;52.002;5.468;2024-01-06T02:44:27;100501.06;;;7.16;80.31
73341;BME280;61578;52.002;5.468;2024-01-06T02:44:57;100512.56;;;7.15;80.86
73341;BME280;61578;52.002;5.468;2024-01-06T02:45:28;100496.72;;;7.15;80.90